Time;durP1;ratioP1;P1;durP2;ratioP2;P2;SDS_P1;SDS_P2;PMS_P1;PMS_P2;Temp;Humidity;BMP_temperature;BMP_pressure;BME280_temperature;BME280_humidity;BME280_pressure;Samples;Min_cycle;Max_cycle;Signal;HPM_P1;HPM_P2
2023/06/29 00:00:41;;;;;;;6.10;5.27;;;;;;;18.46;65.15;156107.09;5052095;28;20456;-80
2023/06/29 00:03:11;;;;;;;6.07;5.47;;;;;;;18.49;65.27;156113.66;5048493;28;20457;-80
2023/06/29 00:05:42;;;;;;;5.93;5.43;;;;;;;18.51;65.21;156118.88;5088381;28;20441;-80
2023/06/29 00:08:08;;;;;;;7.33;5.10;;;;;;;18.47;65.27;156109.78;5067586;28;20461;-80
2023/06/29 00:10:35;;;;;;;6.37;5.77;;;;;;;18.48;65.05;156112.38;5060381;28;20454;-80
2023/06/29 00:13:03;;;;;;;6.03;5.43;;;;;;;18.43;65.11;156099.28;5086566;28;20479;-80
2023/06/29 00:15:30;;;;;;;5.80;5.30;;;;;;;18.42;65.30;156095.41;5070056;28;20456;-80
2023/06/29 00:17:57;;;;;;;5.77;5.27;;;;;;;18.41;65.47;156092.78;5086305;28;20456;-80
2023/06/29 00:20:28;;;;;;;5.30;4.90;;;;;;;18.39;65.23;156088.88;5066998;28;20782;-80
2023/06/29 00:22:54;;;;;;;10.37;5.47;;;;;;;18.39;65.20;156087.59;5087403;28;20448;-80
2023/06/29 00:25:21;;;;;;;6.97;5.30;;;;;;;18.37;64.83;156082.38;5064984;28;20446;-80
2023/06/29 00:27:47;;;;;;;6.47;4.93;;;;;;;18.32;65.17;156070.63;5065873;28;20458;-80
2023/06/29 00:30:15;;;;;;;6.10;5.50;;;;;;;18.29;65.48;156062.84;5059929;28;20951;-80
2023/06/29 00:32:42;;;;;;;5.63;5.07;;;;;;;18.31;65.58;156066.75;5046648;28;20835;-80
2023/06/29 00:35:11;;;;;;;6.20;5.60;;;;;;;18.25;65.94;156052.41;5049926;28;21002;-80
2023/06/29 00:37:37;;;;;;;5.60;5.07;;;;;;;18.15;66.24;156027.69;5064394;28;20839;-80
2023/06/29 00:40:05;;;;;;;6.60;6.00;;;;;;;18.11;66.53;156017.25;5065200;28;20482;-80
2023/06/29 00:42:32;;;;;;;6.27;5.70;;;;;;;18.07;66.38;156006.84;5080073;28;20447;-80
2023/06/29 00:44:58;;;;;;;5.67;5.17;;;;;;;18.03;66.42;155996.41;5072213;28;20550;-80
2023/06/29 00:47:26;;;;;;;5.77;5.30;;;;;;;18.03;66.81;155996.41;5039017;28;20454;-80
2023/06/29 00:49:53;;;;;;;6.40;5.90;;;;;;;17.99;66.54;155986.00;5058674;28;20450;-80
2023/06/29 00:52:19;;;;;;;5.90;5.40;;;;;;;17.96;66.64;155978.19;5069060;28;20484;-80
2023/06/29 00:54:46;;;;;;;7.53;5.30;;;;;;;17.92;66.60;155967.78;5065860;28;20471;-80
2023/06/29 00:57:13;;;;;;;5.30;4.80;;;;;;;17.87;66.58;155954.72;5065882;28;20546;-80
2023/06/29 00:59:40;;;;;;;5.23;4.73;;;;;;;17.88;66.99;155956.03;5070169;28;20533;-80
2023/06/29 01:02:08;;;;;;;6.43;5.80;;;;;;;17.87;66.59;155953.47;5086336;28;20918;-80
2023/06/29 01:04:37;;;;;;;6.17;5.67;;;;;;;17.89;66.42;155958.66;5060405;28;20514;-80
2023/06/29 01:07:08;;;;;;;5.80;5.20;;;;;;;17.83;66.57;155944.34;5061492;28;20486;-80
2023/06/29 01:09:35;;;;;;;7.23;6.50;;;;;;;17.84;66.67;155945.66;5039367;28;20450;-80
2023/06/29 01:12:03;;;;;;;5.93;5.43;;;;;;;17.83;67.01;155943.03;5055466;28;20472;-80
2023/06/29 01:14:32;;;;;;;5.53;4.90;;;;;;;17.78;67.03;155930.00;5067425;28;20448;-80
2023/06/29 01:16:58;;;;;;;8.10;5.57;;;;;;;17.71;67.17;155911.81;5062164;28;20542;-80
2023/06/29 01:19:28;;;;;;;5.53;4.83;;;;;;;17.66;67.23;155900.06;5071157;28;20526;-80
2023/06/29 01:22:00;;;;;;;5.57;4.53;;;;;;;17.64;67.59;155894.84;5084742;28;21006;-80
2023/06/29 01:24:27;;;;;;;5.83;5.33;;;;;;;17.65;67.67;155897.47;5087416;28;20425;-80
2023/06/29 01:26:55;;;;;;;6.90;4.73;;;;;;;17.63;67.92;155892.28;5066903;28;21029;-80
2023/06/29 01:29:25;;;;;;;6.47;5.00;;;;;;;17.65;67.64;155897.47;5056462;28;20454;-80
2023/06/29 01:32:00;;;;;;;8.87;5.40;;;;;;;17.64;68.09;155894.84;5055644;28;20486;-80
2023/06/29 01:34:28;;;;;;;5.67;5.20;;;;;;;17.64;68.09;155896.16;5065073;28;20475;-80
2023/06/29 01:36:59;;;;;;;4.87;4.47;;;;;;;17.61;67.48;155887.03;5062017;28;20485;-80
2023/06/29 01:39:28;;;;;;;5.90;5.40;;;;;;;17.51;68.18;155862.28;5047720;28;20437;-79
2023/06/29 01:41:56;;;;;;;5.73;5.23;;;;;;;17.45;68.40;155845.34;5067217;28;20456;-79
2023/06/29 01:44:23;;;;;;;5.87;5.37;;;;;;;17.39;68.60;155829.75;5054444;28;20522;-80
2023/06/29 01:46:49;;;;;;;6.33;5.73;;;;;;;17.36;68.78;155821.94;5072927;28;20462;-80
2023/06/29 01:49:16;;;;;;;5.73;5.07;;;;;;;17.30;68.60;155807.63;5080108;28;20461;-80
2023/06/29 01:51:42;;;;;;;6.40;5.80;;;;;;;17.26;69.57;155795.91;5069787;28;20473;-80
2023/06/29 01:54:09;;;;;;;5.80;5.30;;;;;;;17.26;69.45;155797.16;5068860;28;20818;-80
2023/06/29 01:56:36;;;;;;;5.43;4.93;;;;;;;17.28;69.00;155801.09;5067908;28;21015;-80
2023/06/29 01:59:04;;;;;;;6.33;5.73;;;;;;;17.30;69.08;155806.28;5059483;28;20520;-80
2023/06/29 02:01:31;;;;;;;6.87;5.87;;;;;;;17.26;69.53;155797.16;5078789;28;20460;-80
2023/06/29 02:04:00;;;;;;;6.10;5.53;;;;;;;17.18;69.36;155775.09;5068803;28;20502;-80
2023/06/29 02:06:26;;;;;;;6.33;5.70;;;;;;;17.13;69.79;155763.34;5085622;28;20473;-80
2023/06/29 02:08:53;;;;;;;5.77;5.27;;;;;;;17.09;70.26;155752.94;5070403;28;20498;-80
2023/06/29 02:11:20;;;;;;;9.07;6.33;;;;;;;17.10;70.48;155754.25;5061139;28;20465;-80
2023/06/29 02:13:47;;;;;;;6.37;5.80;;;;;;;17.02;70.21;155736.00;5086696;28;20445;-80
2023/06/29 02:16:15;;;;;;;5.90;5.40;;;;;;;17.01;70.64;155733.44;5053793;28;20458;-80
2023/06/29 02:18:43;;;;;;;7.53;6.00;;;;;;;16.98;70.88;155725.63;5063086;28;20457;-80
2023/06/29 02:21:10;;;;;;;7.77;5.97;;;;;;;16.98;70.86;155724.31;5067498;28;20457;-80
2023/06/29 02:23:38;;;;;;;6.70;6.10;;;;;;;16.97;71.21;155723.00;5065362;28;21043;-80
2023/06/29 02:26:05;;;;;;;6.30;5.73;;;;;;;16.94;71.24;155715.19;5065208;28;20481;-80
2023/06/29 02:28:36;;;;;;;7.13;6.17;;;;;;;16.93;71.54;155711.31;5065411;28;20454;-80
2023/06/29 02:31:02;;;;;;;5.87;5.37;;;;;;;16.90;71.82;155704.81;5083859;28;20820;-80
2023/06/29 02:33:30;;;;;;;6.20;5.60;;;;;;;16.85;71.64;155691.81;5051096;28;20466;-80
2023/06/29 02:35:57;;;;;;;6.10;5.47;;;;;;;16.82;71.73;155684.00;5069987;28;20454;-80
2023/06/29 02:38:23;;;;;;;6.30;5.70;;;;;;;16.80;71.96;155678.78;5083442;28;20457;-79
2023/06/29 02:40:50;;;;;;;6.10;5.60;;;;;;;16.79;71.88;155676.19;5088546;28;20524;-80
2023/06/29 02:43:16;;;;;;;6.47;5.90;;;;;;;16.78;72.05;155672.28;5050348;28;20819;-80
2023/06/29 02:45:43;;;;;;;6.83;5.93;;;;;;;16.76;72.21;155667.09;5053328;28;20822;-80
2023/06/29 02:48:11;;;;;;;6.73;6.13;;;;;;;16.74;71.63;155661.88;5068267;28;20457;-80
2023/06/29 02:50:39;;;;;;;9.60;6.23;;;;;;;16.72;71.93;155657.97;5066932;28;20464;-80
2023/06/29 02:53:05;;;;;;;9.53;7.00;;;;;;;16.71;71.85;155654.03;5064561;28;20481;-80
2023/06/29 02:55:32;;;;;;;7.63;6.93;;;;;;;16.66;72.34;155642.34;5056603;28;20468;-80
2023/06/29 02:57:59;;;;;;;6.70;6.10;;;;;;;16.61;72.38;155628.03;5083543;28;20897;-79
2023/06/29 03:00:26;;;;;;;7.00;6.37;;;;;;;16.56;72.19;155616.34;5050114;28;20455;-79
2023/06/29 03:02:53;;;;;;;6.90;6.27;;;;;;;16.54;72.45;155611.16;5062044;28;20476;-80
2023/06/29 03:05:21;;;;;;;5.90;5.50;;;;;;;16.50;72.69;155600.66;5068371;28;20457;-79
2023/06/29 03:07:48;;;;;;;6.10;5.60;;;;;;;16.49;72.95;155598.09;5086085;28;20464;-80
2023/06/29 03:10:15;;;;;;;10.93;7.07;;;;;;;16.45;72.72;155587.66;5086711;28;20452;-81
2023/06/29 03:12:42;;;;;;;6.73;6.03;;;;;;;16.41;72.92;155577.28;5049876;28;20890;-81
2023/06/29 03:15:09;;;;;;;6.93;6.13;;;;;;;16.39;72.98;155572.06;5067875;28;20479;-81
2023/06/29 03:17:36;;;;;;;8.07;6.23;;;;;;;16.37;72.66;155566.84;5061512;28;20971;-80
2023/06/29 03:20:02;;;;;;;6.63;6.07;;;;;;;16.35;72.63;155562.97;5064219;28;20459;-80
2023/06/29 03:22:29;;;;;;;7.77;6.00;;;;;;;16.34;72.48;155560.34;5068415;28;20967;-81
2023/06/29 03:24:56;;;;;;;7.30;6.60;;;;;;;16.32;72.77;155553.84;5085242;28;20457;-80
2023/06/29 03:27:23;;;;;;;7.43;6.53;;;;;;;16.30;73.27;155548.66;5068025;28;20458;-80
2023/06/29 03:29:50;;;;;;;6.47;5.97;;;;;;;16.27;73.23;155540.84;5082483;28;20445;-81
2023/06/29 03:32:17;;;;;;;6.70;6.10;;;;;;;16.25;73.57;155535.66;5072868;28;20478;-80
2023/06/29 03:34:43;;;;;;;6.60;5.87;;;;;;;16.25;73.18;155536.97;5075156;28;20820;-80
2023/06/29 03:37:10;;;;;;;6.70;6.10;;;;;;;16.28;72.97;155543.47;5083813;28;20469;-80
2023/06/29 03:39:37;;;;;;;6.53;5.93;;;;;;;16.27;73.28;155540.84;5088986;28;20757;-80
2023/06/29 03:42:05;;;;;;;6.97;6.27;;;;;;;16.31;73.65;155551.25;5070466;28;20526;-81
2023/06/29 03:44:32;;;;;;;7.30;6.60;;;;;;;16.30;73.16;155548.66;5070108;28;20441;-81
2023/06/29 03:46:58;;;;;;;7.37;6.77;;;;;;;16.28;73.80;155543.47;5066162;28;20530;-80
2023/06/29 03:49:25;;;;;;;7.57;7.03;;;;;;;16.28;73.49;155543.47;5067422;28;20441;-80
2023/06/29 03:51:51;;;;;;;7.43;6.73;;;;;;;16.28;73.40;155543.47;5067329;28;20559;-80
2023/06/29 03:54:18;;;;;;;7.23;6.53;;;;;;;16.30;73.53;155548.66;5070526;28;21032;-80
2023/06/29 03:56:44;;;;;;;7.10;6.50;;;;;;;16.34;73.82;155559.06;5066112;28;20512;-80
2023/06/29 03:59:12;;;;;;;8.70;6.50;;;;;;;16.32;73.27;155555.16;5047752;28;20454;-80
2023/06/29 04:01:38;;;;;;;8.43;7.53;;;;;;;16.34;73.85;155559.06;5069927;28;20460;-80
2023/06/29 04:04:05;;;;;;;7.40;6.47;;;;;;;16.33;73.81;155556.47;5067863;28;20446;-80
2023/06/29 04:06:31;;;;;;;10.07;7.10;;;;;;;16.35;74.36;155562.97;5080338;28;20453;-80
2023/06/29 04:08:58;;;;;;;6.37;5.87;;;;;;;16.40;73.87;155574.66;5067133;28;20475;-80
2023/06/29 04:11:25;;;;;;;6.33;5.73;;;;;;;16.52;73.76;155604.59;5064698;28;20454;-80
2023/06/29 04:13:51;;;;;;;7.80;7.00;;;;;;;16.67;73.30;155644.97;5079834;28;20964;-80
2023/06/29 04:16:19;;;;;;;7.17;6.57;;;;;;;16.88;72.41;155698.31;5069236;28;20457;-81
2023/06/29 04:18:45;;;;;;;7.00;6.33;;;;;;;17.02;72.07;155736.00;5065830;28;20455;-80
2023/06/29 04:21:12;;;;;;;6.80;6.20;;;;;;;17.23;71.51;155788.09;5085032;28;21069;-80
2023/06/29 04:23:38;;;;;;;6.60;6.00;;;;;;;17.42;71.01;155838.81;5069571;28;20682;-81
2023/06/29 04:26:05;;;;;;;7.10;6.40;;;;;;;17.60;70.86;155884.47;5079937;28;20444;-81
2023/06/29 04:28:35;;;;;;;7.53;6.93;;;;;;;17.85;71.21;155948.22;5054031;28;20455;-80
2023/06/29 04:31:02;;;;;;;8.40;7.10;;;;;;;18.08;69.97;156008.16;5059994;28;20489;-81
2023/06/29 04:33:29;;;;;;;7.07;6.37;;;;;;;18.22;69.67;156045.91;5050802;28;20465;-81
2023/06/29 04:35:56;;;;;;;7.30;6.70;;;;;;;18.43;68.56;156097.97;5066847;28;20450;-81
2023/06/29 04:38:25;;;;;;;7.40;6.80;;;;;;;18.60;67.72;156142.34;5059026;28;20971;-81
2023/06/29 04:41:03;;;;;;;6.47;5.87;;;;;;;18.74;66.19;156178.84;5067920;28;20442;-81
2023/06/29 04:43:29;;;;;;;6.23;5.63;;;;;;;18.92;66.37;156225.72;5068364;28;20434;-81
2023/06/29 04:45:56;;;;;;;7.83;7.20;;;;;;;19.06;66.06;156260.91;5051004;28;20451;-81
2023/06/29 04:48:28;;;;;;;6.30;5.70;;;;;;;19.21;65.15;156301.31;5062635;28;20453;-81
2023/06/29 04:51:04;;;;;;;6.80;6.20;;;;;;;19.35;64.52;156337.78;5060305;28;20469;-81
2023/06/29 04:53:35;;;;;;;7.90;6.20;;;;;;;19.50;64.30;156375.66;5066829;28;20461;-81
2023/06/29 04:56:02;;;;;;;7.00;6.20;;;;;;;19.61;63.53;156404.34;5063361;28;20487;-81
2023/06/29 04:58:36;;;;;;;6.47;5.97;;;;;;;19.74;63.39;156436.91;5068276;28;20457;-81
2023/06/29 05:01:22;;;;;;;6.40;5.90;;;;;;;19.87;63.00;156470.81;5066121;28;20473;-82
2023/06/29 05:03:53;;;;;;;7.93;7.13;;;;;;;19.96;62.53;156494.31;5075112;28;20803;-82
2023/06/29 05:06:26;;;;;;;6.90;6.30;;;;;;;20.07;61.91;156522.94;5054459;28;20450;-80
2023/06/29 05:08:58;;;;;;;6.47;5.97;;;;;;;20.20;61.78;156556.84;5068869;28;20453;-81
2023/06/29 05:11:24;;;;;;;6.80;6.13;;;;;;;20.32;61.51;156588.25;5056782;28;20464;-82
2023/06/29 05:13:51;;;;;;;12.90;6.30;;;;;;;20.44;60.59;156619.53;5057042;28;20558;-80
2023/06/29 05:16:18;;;;;;;8.67;5.93;;;;;;;20.52;60.59;156639.06;5075253;28;20480;-81
2023/06/29 05:18:44;;;;;;;9.40;6.47;;;;;;;20.54;60.36;156645.59;5058927;28;20540;-81
2023/06/29 05:21:11;;;;;;;6.13;5.63;;;;;;;20.69;60.48;156682.16;5064853;28;20464;-81
2023/06/29 05:23:39;;;;;;;6.27;5.77;;;;;;;20.80;59.69;156710.84;5046001;28;21029;-81
2023/06/29 05:26:05;;;;;;;7.70;7.00;;;;;;;20.98;59.42;156757.81;5062821;28;21130;-81
2023/06/29 05:28:32;;;;;;;7.80;7.10;;;;;;;21.11;59.40;156793.13;5060149;28;20450;-80
2023/06/29 05:30:58;;;;;;;8.57;7.77;;;;;;;21.20;59.20;156815.31;5074385;28;20450;-81
2023/06/29 05:33:25;;;;;;;9.00;8.30;;;;;;;21.26;58.72;156829.66;5064469;28;20461;-81
2023/06/29 05:35:52;;;;;;;9.50;8.60;;;;;;;21.29;58.58;156838.78;5067440;28;20460;-81
2023/06/29 05:38:18;;;;;;;8.73;7.93;;;;;;;21.49;58.35;156891.03;5076360;28;20521;-81
2023/06/29 05:40:46;;;;;;;8.20;7.57;;;;;;;21.68;58.05;156940.59;5039784;28;20878;-81
2023/06/29 05:43:13;;;;;;;8.50;7.80;;;;;;;21.79;57.64;156969.31;5062986;28;21052;-81
2023/06/29 05:45:39;;;;;;;7.90;7.20;;;;;;;21.99;56.77;157020.31;5072782;28;20469;-81
2023/06/29 05:48:06;;;;;;;7.30;6.70;;;;;;;22.11;56.53;157051.63;5060176;28;20998;-81
2023/06/29 05:50:33;;;;;;;10.17;7.00;;;;;;;22.28;56.53;157094.75;5078306;28;20547;-81
2023/06/29 05:53:00;;;;;;;8.10;7.50;;;;;;;22.47;55.13;157143.06;5062461;28;20473;-81
2023/06/29 05:55:26;;;;;;;6.00;5.60;;;;;;;22.62;54.39;157183.56;5072289;28;20489;-81
2023/06/29 05:57:54;;;;;;;6.83;5.90;;;;;;;22.76;54.10;157220.22;5057130;28;20461;-81
2023/06/29 06:00:21;;;;;;;7.50;6.03;;;;;;;22.87;54.11;157247.66;5076310;28;20529;-80
2023/06/29 06:02:48;;;;;;;7.83;6.47;;;;;;;22.82;53.68;157235.84;5078401;28;20467;-80
2023/06/29 06:05:14;;;;;;;7.10;6.30;;;;;;;22.97;53.26;157273.75;5074673;28;20456;-80
2023/06/29 06:07:41;;;;;;;8.13;6.50;;;;;;;23.03;53.29;157290.72;5074560;28;20457;-80
2023/06/29 06:10:08;;;;;;;6.80;6.30;;;;;;;23.09;53.45;157303.84;5057455;28;20482;-81
2023/06/29 06:12:35;;;;;;;6.40;5.80;;;;;;;23.31;53.15;157361.31;5060580;28;20449;-81
2023/06/29 06:15:04;;;;;;;7.50;6.90;;;;;;;23.52;52.16;157417.56;5062389;28;20449;-82
2023/06/29 06:17:30;;;;;;;8.57;6.70;;;;;;;23.59;51.54;157435.84;5072959;28;20488;-80
2023/06/29 06:19:57;;;;;;;7.90;7.30;;;;;;;23.62;52.31;157442.38;5057485;28;20453;-80
2023/06/29 06:22:23;;;;;;;7.70;6.57;;;;;;;23.68;52.13;157458.09;5076068;28;20891;-80
2023/06/29 06:24:50;;;;;;;7.60;7.00;;;;;;;23.75;51.26;157476.38;5066963;28;20488;-80
2023/06/29 06:27:17;;;;;;;7.90;7.30;;;;;;;23.85;51.44;157502.56;5073857;28;20866;-80
2023/06/29 06:29:43;;;;;;;7.03;6.33;;;;;;;23.99;51.18;157539.13;5065197;28;20454;-80
2023/06/29 06:32:11;;;;;;;7.60;6.90;;;;;;;24.08;50.75;157562.75;5074475;28;20588;-80
2023/06/29 06:34:38;;;;;;;7.20;6.50;;;;;;;24.25;50.49;157604.59;5063154;28;20473;-81
2023/06/29 06:37:05;;;;;;;7.37;6.13;;;;;;;24.28;49.58;157613.72;5077154;28;20449;-81
2023/06/29 06:39:32;;;;;;;8.27;7.10;;;;;;;24.34;48.91;157628.13;5066641;28;20453;-80
2023/06/29 06:41:59;;;;;;;8.90;8.20;;;;;;;24.39;49.25;157641.19;5065919;28;20758;-80
2023/06/29 06:44:25;;;;;;;8.83;6.33;;;;;;;24.48;48.05;157664.75;5064569;28;20524;-81
2023/06/29 06:46:52;;;;;;;6.73;6.20;;;;;;;24.49;47.86;157668.66;5065248;28;20463;-81
2023/06/29 06:49:20;;;;;;;7.13;6.63;;;;;;;24.66;47.95;157711.84;5072986;28;20454;-81
2023/06/29 06:51:46;;;;;;;6.50;6.00;;;;;;;24.57;46.35;157688.31;5059061;28;20453;-81
2023/06/29 06:54:13;;;;;;;5.53;4.90;;;;;;;24.47;47.61;157662.13;5064150;28;20469;-81
2023/06/29 06:56:40;;;;;;;5.30;4.90;;;;;;;24.69;47.36;157719.69;5073282;28;20458;-81
2023/06/29 06:59:07;;;;;;;5.60;5.10;;;;;;;24.98;46.56;157795.63;5063980;28;20451;-81
2023/06/29 07:01:34;;;;;;;6.10;5.50;;;;;;;25.24;46.33;157863.66;5055808;28;20449;-81
2023/06/29 07:04:00;;;;;;;6.83;5.60;;;;;;;25.48;46.39;157923.91;5078255;28;20445;-81
2023/06/29 07:06:30;;;;;;;5.90;5.40;;;;;;;25.68;45.29;157976.28;5043190;28;20484;-81
2023/06/29 07:08:59;;;;;;;6.07;4.70;;;;;;;25.77;43.31;157999.81;5060216;28;20453;-82
2023/06/29 07:11:25;;;;;;;5.40;4.73;;;;;;;25.66;43.03;157972.34;5072848;28;20454;-81
2023/06/29 07:13:52;;;;;;;6.97;5.93;;;;;;;25.38;44.28;157900.31;5058384;28;20470;-82
2023/06/29 07:16:19;;;;;;;6.37;5.70;;;;;;;24.72;45.97;157727.53;5075722;28;20843;-82
2023/06/29 07:19:02;;;;;;;6.27;5.77;;;;;;;25.01;46.13;157803.47;5075299;28;20819;-81
2023/06/29 07:21:30;;;;;;;5.70;5.20;;;;;;;25.19;44.78;157850.59;5078180;28;20461;-81
2023/06/29 07:23:56;;;;;;;6.47;5.87;;;;;;;25.28;45.53;157874.09;5076325;28;20506;-81
2023/06/29 07:26:23;;;;;;;5.30;4.80;;;;;;;25.48;44.86;157923.91;5064577;28;20467;-81
2023/06/29 07:28:49;;;;;;;6.47;4.70;;;;;;;25.89;45.50;158031.25;5076136;28;20441;-81
2023/06/29 07:31:16;;;;;;;6.13;4.97;;;;;;;26.19;44.00;158109.84;5072460;28;20478;-81
2023/06/29 07:33:42;;;;;;;5.87;5.37;;;;;;;25.99;44.91;158057.44;5049739;28;20571;-82
2023/06/29 07:36:09;;;;;;;6.27;5.67;;;;;;;25.57;44.46;157947.47;5047959;28;20975;-81
2023/06/29 07:38:37;;;;;;;5.70;5.20;;;;;;;25.64;44.32;157965.78;5068267;28;20450;-81
2023/06/29 07:41:05;;;;;;;5.17;4.70;;;;;;;25.87;45.05;158026.00;5073438;28;20823;-81
2023/06/29 07:43:31;;;;;;;5.90;5.07;;;;;;;26.25;43.63;158125.56;5075942;28;20450;-82
2023/06/29 07:45:58;;;;;;;5.73;5.13;;;;;;;26.39;44.64;158162.25;5075324;28;21230;-81
2023/06/29 07:48:24;;;;;;;7.70;5.10;;;;;;;26.72;42.79;158246.03;5071275;28;20457;-82
2023/06/29 07:50:50;;;;;;;5.03;4.57;;;;;;;26.88;42.27;158289.34;5075830;28;20485;-81
2023/06/29 07:53:18;;;;;;;6.60;4.97;;;;;;;26.88;42.29;158289.34;5071542;28;21056;-81
2023/06/29 07:55:46;;;;;;;5.20;4.80;;;;;;;26.58;42.94;158212.00;5059667;28;20563;-81
2023/06/29 07:58:12;;;;;;;6.27;4.63;;;;;;;26.39;43.10;158162.25;5064332;28;20457;-81
2023/06/29 08:00:39;;;;;;;6.33;4.90;;;;;;;26.38;43.05;158158.31;5065296;28;20460;-82
2023/06/29 08:03:05;;;;;;;4.70;4.20;;;;;;;26.40;42.98;158164.84;5059645;28;20834;-82
2023/06/29 08:05:32;;;;;;;6.83;4.67;;;;;;;26.60;42.45;158215.94;5059590;28;20446;-82
2023/06/29 08:07:59;;;;;;;4.63;4.33;;;;;;;26.72;41.69;158247.34;5065229;28;20467;-82
2023/06/29 08:10:26;;;;;;;5.23;4.50;;;;;;;26.88;42.29;158288.00;5055287;28;20445;-82
2023/06/29 08:12:54;;;;;;;4.80;4.40;;;;;;;26.95;41.72;158306.38;5052492;28;20485;-82
2023/06/29 08:15:21;;;;;;;8.20;4.53;;;;;;;27.08;41.43;158341.75;5074862;28;20566;-82
2023/06/29 08:17:47;;;;;;;4.50;4.10;;;;;;;27.17;41.47;158365.31;5073597;28;20456;-81
2023/06/29 08:20:14;;;;;;;5.00;4.60;;;;;;;27.13;41.36;158353.53;5074229;28;20527;-82
2023/06/29 08:22:42;;;;;;;4.20;3.80;;;;;;;27.07;41.85;158337.81;5075950;28;20458;-82
2023/06/29 08:25:10;;;;;;;5.83;4.43;;;;;;;27.08;41.18;158340.44;5061287;28;20553;-81
2023/06/29 08:27:36;;;;;;;4.30;3.63;;;;;;;27.16;41.35;158361.41;5077235;28;20464;-82
2023/06/29 08:30:05;;;;;;;5.10;4.60;;;;;;;27.17;40.88;158364.00;5073786;28;20464;-81
2023/06/29 08:32:32;;;;;;;4.57;4.17;;;;;;;27.21;40.30;158374.50;5076026;28;20488;-87
2023/06/29 08:34:58;;;;;;;4.00;3.60;;;;;;;27.27;41.25;158390.19;5071325;28;20477;-81
2023/06/29 08:37:26;;;;;;;3.93;3.63;;;;;;;27.32;40.48;158403.34;5072821;28;20450;-81
2023/06/29 08:39:52;;;;;;;7.57;4.00;;;;;;;27.13;39.90;158354.88;5072450;28;20441;-81
2023/06/29 08:42:19;;;;;;;4.10;3.80;;;;;;;27.18;40.55;158366.63;5057549;28;20457;-81
2023/06/29 08:44:46;;;;;;;5.30;4.50;;;;;;;27.43;39.37;158432.19;5064623;28;20971;-81
2023/06/29 08:47:15;;;;;;;5.67;3.70;;;;;;;27.27;40.46;158390.19;5064909;28;20530;-81
2023/06/29 08:49:42;;;;;;;4.50;4.10;;;;;;;27.39;40.20;158420.34;5073452;28;20454;-81
2023/06/29 08:52:12;;;;;;;4.10;3.80;;;;;;;27.57;40.49;158468.91;5059133;28;20515;-80
2023/06/29 08:54:39;;;;;;;3.97;3.57;;;;;;;27.76;40.29;158518.72;5072797;28;20469;-81
2023/06/29 08:57:07;;;;;;;4.00;3.70;;;;;;;27.85;39.41;158541.00;5065927;28;20864;-81
2023/06/29 08:59:34;;;;;;;7.43;4.40;;;;;;;27.87;39.19;158544.91;5071480;28;20968;-81
2023/06/29 09:02:00;;;;;;;4.43;3.70;;;;;;;27.86;38.36;158542.28;5065766;28;20460;-81
2023/06/29 09:04:28;;;;;;;4.03;3.67;;;;;;;27.93;38.62;158560.66;5063518;28;20511;-81
2023/06/29 09:06:55;;;;;;;4.20;3.90;;;;;;;27.88;38.09;158548.81;5054992;28;20451;-81
2023/06/29 09:09:22;;;;;;;4.73;4.03;;;;;;;28.06;39.02;158596.13;5071580;28;20434;-81
2023/06/29 09:11:49;;;;;;;4.73;3.63;;;;;;;28.25;38.90;158644.63;5065452;28;20445;-81
2023/06/29 09:14:15;;;;;;;4.50;3.90;;;;;;;28.49;38.54;158706.25;5072889;28;20485;-81
2023/06/29 09:16:50;;;;;;;5.03;4.20;;;;;;;28.28;37.35;158652.44;5068887;28;20733;-81
2023/06/29 09:19:17;;;;;;;5.13;3.97;;;;;;;27.96;38.22;158568.53;5054616;28;20997;-81
2023/06/29 09:21:47;;;;;;;3.90;3.50;;;;;;;27.91;39.05;158555.38;5066689;28;20510;-81
2023/06/29 09:24:14;;;;;;;5.07;4.03;;;;;;;27.94;39.04;158563.25;5057394;28;20739;-81
2023/06/29 09:26:40;;;;;;;4.17;3.77;;;;;;;28.11;38.19;158607.91;5070885;28;20450;-81
2023/06/29 09:29:07;;;;;;;5.00;3.70;;;;;;;28.47;38.25;158702.28;5054984;28;21190;-81
2023/06/29 09:31:35;;;;;;;3.97;3.60;;;;;;;28.49;37.43;158707.53;5069578;28;20886;-81
2023/06/29 09:34:18;;;;;;;4.30;3.90;;;;;;;28.00;37.75;158580.31;5070753;28;21002;-81
2023/06/29 09:36:46;;;;;;;4.00;3.57;;;;;;;27.90;38.24;158552.78;5052120;28;20494;-81
2023/06/29 09:39:13;;;;;;;4.60;3.40;;;;;;;28.15;37.97;158619.69;5073751;28;20454;-81
2023/06/29 09:41:46;;;;;;;3.40;3.10;;;;;;;28.40;37.83;158683.94;5075456;28;20460;-81
2023/06/29 09:44:15;;;;;;;4.80;3.60;;;;;;;28.68;36.88;158757.41;5055030;28;21180;-81
2023/06/29 09:46:41;;;;;;;4.10;3.07;;;;;;;28.93;35.85;158821.69;5071349;28;20452;-81
2023/06/29 09:49:09;;;;;;;3.30;3.00;;;;;;;29.28;36.32;158912.28;5055980;28;20462;-81
2023/06/29 09:51:35;;;;;;;3.53;3.23;;;;;;;29.43;34.74;158951.63;5076193;28;20452;-81
2023/06/29 09:54:03;;;;;;;4.10;3.70;;;;;;;29.18;35.55;158885.94;5063006;28;20796;-82
2023/06/29 09:56:33;;;;;;;5.50;3.80;;;;;;;28.62;35.62;158741.66;5072232;28;20457;-82
2023/06/29 09:59:01;;;;;;;3.67;3.13;;;;;;;28.37;36.23;158676.06;5071650;28;20788;-82
2023/06/29 10:01:28;;;;;;;3.60;3.30;;;;;;;28.30;36.82;158659.00;5063049;28;20453;-81
2023/06/29 10:03:55;;;;;;;4.00;3.23;;;;;;;28.48;36.15;158704.94;5069839;28;20461;-82
2023/06/29 10:06:26;;;;;;;2.93;2.73;;;;;;;28.71;36.32;158763.97;5075199;28;20456;-82
2023/06/29 10:08:56;;;;;;;3.20;2.90;;;;;;;28.92;35.72;158820.38;5076101;28;20799;-82
2023/06/29 10:11:28;;;;;;;3.30;3.00;;;;;;;29.10;35.38;158865.00;5064265;28;20572;-82
2023/06/29 10:13:57;;;;;;;3.70;3.30;;;;;;;29.17;35.35;158884.66;5058553;28;20980;-82
2023/06/29 10:16:24;;;;;;;3.67;3.30;;;;;;;29.02;35.48;158844.00;5075594;28;20457;-82
2023/06/29 10:18:52;;;;;;;3.20;3.00;;;;;;;28.98;34.86;158836.13;5057058;28;20462;-82
2023/06/29 10:21:18;;;;;;;3.47;3.17;;;;;;;28.82;35.96;158794.16;5058368;28;20814;-82
2023/06/29 10:23:45;;;;;;;4.13;3.37;;;;;;;28.95;35.67;158828.25;5076826;28;20484;-82
2023/06/29 10:26:12;;;;;;;3.60;3.30;;;;;;;28.99;35.38;158838.72;5077232;28;20511;-83
2023/06/29 10:28:40;;;;;;;3.67;3.37;;;;;;;28.77;35.48;158781.03;5073064;28;20519;-82
2023/06/29 10:31:07;;;;;;;5.80;3.33;;;;;;;28.72;35.92;158767.94;5066464;28;20446;-81
2023/06/29 10:33:45;;;;;;;4.57;3.00;;;;;;;28.46;35.91;158699.69;5075104;28;20964;-82
2023/06/29 10:36:13;;;;;;;4.10;3.40;;;;;;;28.47;36.05;158702.28;5066326;28;20484;-81
2023/06/29 10:38:40;;;;;;;4.10;3.40;;;;;;;28.39;36.51;158682.63;5075160;28;20441;-81
2023/06/29 10:41:07;;;;;;;4.00;3.50;;;;;;;28.18;36.85;158626.22;5068580;28;20583;-81
2023/06/29 10:43:56;;;;;;;3.73;3.43;;;;;;;28.16;36.97;158621.00;5076771;28;20822;-81
2023/06/29 10:46:46;;;;;;;4.20;3.80;;;;;;;28.12;37.09;158610.50;5060258;28;20453;-81
2023/06/29 10:49:21;;;;;;;3.77;3.47;;;;;;;27.91;37.42;158555.38;5056338;28;20458;-81
2023/06/29 10:51:51;;;;;;;4.20;3.80;;;;;;;28.08;38.25;158601.34;5076931;28;20461;-81
2023/06/29 10:54:18;;;;;;;4.97;4.10;;;;;;;28.13;37.64;158613.13;5075652;28;20444;-81
2023/06/29 10:56:57;;;;;;;3.80;3.50;;;;;;;28.09;37.05;158603.94;5063822;28;20796;-81
2023/06/29 10:59:26;;;;;;;4.10;3.80;;;;;;;27.90;37.41;158552.78;5064641;28;20557;-82
2023/06/29 11:01:53;;;;;;;4.80;4.10;;;;;;;27.82;38.00;158531.81;5076475;28;20522;-82
2023/06/29 11:04:20;;;;;;;4.50;3.50;;;;;;;27.89;37.57;158550.16;5075127;28;20454;-82
2023/06/29 11:06:46;;;;;;;3.80;3.40;;;;;;;28.02;38.37;158584.28;5065082;28;20916;-82
2023/06/29 11:09:13;;;;;;;4.23;3.60;;;;;;;28.07;37.92;158597.38;5077304;28;20484;-82
2023/06/29 11:11:40;;;;;;;4.60;4.13;;;;;;;28.12;37.76;158610.50;5077360;28;20453;-82
2023/06/29 11:14:07;;;;;;;4.50;4.10;;;;;;;28.28;37.44;158653.75;5075528;28;20497;-82
2023/06/29 11:16:35;;;;;;;4.17;3.80;;;;;;;28.46;37.23;158699.69;5048226;28;20987;-82
2023/06/29 11:19:02;;;;;;;4.20;3.60;;;;;;;28.48;36.96;158704.94;5075639;28;20441;-82
2023/06/29 11:21:28;;;;;;;4.77;4.37;;;;;;;28.28;37.45;158652.44;5066760;28;20456;-82
2023/06/29 11:23:55;;;;;;;4.30;3.90;;;;;;;28.24;38.11;158641.97;5064703;28;20554;-82
2023/06/29 11:26:22;;;;;;;4.50;4.17;;;;;;;28.54;37.82;158719.34;5058834;28;20543;-82